sensor_id;sensor_type;location;lat;lon;timestamp;P1;durP1;ratioP1;P2;durP2;ratioP2
59306;SDS011;47983;53.016;-2.260;2022-11-15T00:01:56;11.93;;;2.20;;
59306;SDS011;47983;53.016;-2.260;2022-11-15T00:04:43;12.35;;;2.60;;
59306;SDS011;47983;53.016;-2.260;2022-11-15T00:07:29;7.45;;;2.70;;
59306;SDS011;47983;53.016;-2.260;2022-11-15T00:10:35;10.00;;;2.90;;
59306;SDS011;47983;53.016;-2.260;2022-11-15T00:13:22;6.43;;;2.47;;
59306;SDS011;47983;53.016;-2.260;2022-11-15T00:16:09;7.00;;;2.35;;
59306;SDS011;47983;53.016;-2.260;2022-11-15T00:18:56;5.38;;;2.10;;
59306;SDS011;47983;53.016;-2.260;2022-11-15T00:21:43;5.13;;;1.70;;
59306;SDS011;47983;53.016;-2.260;2022-11-15T00:24:28;10.95;;;2.58;;
59306;SDS011;47983;53.016;-2.260;2022-11-15T00:27:15;7.43;;;2.15;;
59306;SDS011;47983;53.016;-2.260;2022-11-15T00:30:01;14.52;;;1.95;;
59306;SDS011;47983;53.016;-2.260;2022-11-15T00:32:48;7.60;;;2.20;;
59306;SDS011;47983;53.016;-2.260;2022-11-15T00:35:34;5.07;;;1.75;;
59306;SDS011;47983;53.016;-2.260;2022-11-15T00:38:21;12.10;;;2.00;;
59306;SDS011;47983;53.016;-2.260;2022-11-15T00:41:07;9.80;;;2.03;;
59306;SDS011;47983;53.016;-2.260;2022-11-15T00:43:54;6.97;;;1.40;;
59306;SDS011;47983;53.016;-2.260;2022-11-15T00:46:40;6.57;;;1.13;;
59306;SDS011;47983;53.016;-2.260;2022-11-15T00:49:27;9.90;;;1.48;;
59306;SDS011;47983;53.016;-2.260;2022-11-15T00:52:13;12.88;;;1.52;;
59306;SDS011;47983;53.016;-2.260;2022-11-15T00:54:59;9.85;;;1.48;;
59306;SDS011;47983;53.016;-2.260;2022-11-15T00:57:52;11.93;;;1.88;;
59306;SDS011;47983;53.016;-2.260;2022-11-15T01:00:38;8.80;;;1.08;;
59306;SDS011;47983;53.016;-2.260;2022-11-15T01:03:24;6.65;;;1.23;;
59306;SDS011;47983;53.016;-2.260;2022-11-15T01:06:10;7.40;;;1.10;;
59306;SDS011;47983;53.016;-2.260;2022-11-15T01:08:57;6.07;;;1.02;;
59306;SDS011;47983;53.016;-2.260;2022-11-15T01:11:43;12.80;;;1.33;;
59306;SDS011;47983;53.016;-2.260;2022-11-15T01:14:30;6.15;;;1.10;;
59306;SDS011;47983;53.016;-2.260;2022-11-15T01:17:17;7.72;;;1.23;;
59306;SDS011;47983;53.016;-2.260;2022-11-15T01:20:03;7.78;;;0.98;;
59306;SDS011;47983;53.016;-2.260;2022-11-15T01:22:49;9.55;;;1.58;;
59306;SDS011;47983;53.016;-2.260;2022-11-15T01:25:36;8.15;;;1.02;;
59306;SDS011;47983;53.016;-2.260;2022-11-15T01:28:22;10.35;;;1.42;;
59306;SDS011;47983;53.016;-2.260;2022-11-15T01:31:11;7.65;;;1.85;;
59306;SDS011;47983;53.016;-2.260;2022-11-15T01:33:59;11.63;;;1.83;;
59306;SDS011;47983;53.016;-2.260;2022-11-15T01:36:45;5.20;;;0.75;;
59306;SDS011;47983;53.016;-2.260;2022-11-15T01:39:31;10.75;;;2.60;;
59306;SDS011;47983;53.016;-2.260;2022-11-15T01:42:17;10.38;;;1.30;;
59306;SDS011;47983;53.016;-2.260;2022-11-15T01:45:04;7.25;;;1.33;;
59306;SDS011;47983;53.016;-2.260;2022-11-15T01:47:51;13.15;;;1.38;;
59306;SDS011;47983;53.016;-2.260;2022-11-15T01:50:39;9.23;;;1.38;;
59306;SDS011;47983;53.016;-2.260;2022-11-15T01:53:28;8.57;;;1.38;;
59306;SDS011;47983;53.016;-2.260;2022-11-15T01:56:19;4.32;;;1.48;;
59306;SDS011;47983;53.016;-2.260;2022-11-15T01:59:10;10.18;;;1.30;;
59306;SDS011;47983;53.016;-2.260;2022-11-15T02:01:59;2.92;;;1.30;;
59306;SDS011;47983;53.016;-2.260;2022-11-15T02:04:46;4.55;;;1.08;;
59306;SDS011;47983;53.016;-2.260;2022-11-15T02:07:34;5.95;;;1.60;;
59306;SDS011;47983;53.016;-2.260;2022-11-15T02:10:22;8.63;;;1.73;;
59306;SDS011;47983;53.016;-2.260;2022-11-15T02:13:09;6.32;;;0.98;;
59306;SDS011;47983;53.016;-2.260;2022-11-15T02:15:59;10.20;;;1.52;;
59306;SDS011;47983;53.016;-2.260;2022-11-15T02:18:57;3.33;;;1.42;;
59306;SDS011;47983;53.016;-2.260;2022-11-15T02:34:16;15.27;;;1.65;;
59306;SDS011;47983;53.016;-2.260;2022-11-15T02:40:44;7.32;;;1.35;;
59306;SDS011;47983;53.016;-2.260;2022-11-15T02:43:39;10.70;;;1.17;;
59306;SDS011;47983;53.016;-2.260;2022-11-15T02:46:43;5.20;;;0.98;;
59306;SDS011;47983;53.016;-2.260;2022-11-15T02:49:51;10.10;;;1.17;;
59306;SDS011;47983;53.016;-2.260;2022-11-15T02:52:50;12.27;;;2.28;;
59306;SDS011;47983;53.016;-2.260;2022-11-15T02:55:37;6.32;;;0.70;;
59306;SDS011;47983;53.016;-2.260;2022-11-15T03:01:28;8.13;;;1.10;;
59306;SDS011;47983;53.016;-2.260;2022-11-15T03:13:29;9.88;;;1.15;;
59306;SDS011;47983;53.016;-2.260;2022-11-15T03:19:32;3.50;;;0.60;;
59306;SDS011;47983;53.016;-2.260;2022-11-15T03:22:26;7.65;;;1.20;;
59306;SDS011;47983;53.016;-2.260;2022-11-15T03:25:19;5.72;;;0.90;;
59306;SDS011;47983;53.016;-2.260;2022-11-15T03:28:08;11.35;;;1.10;;
59306;SDS011;47983;53.016;-2.260;2022-11-15T03:30:58;4.32;;;1.33;;
59306;SDS011;47983;53.016;-2.260;2022-11-15T03:33:46;9.88;;;1.38;;
59306;SDS011;47983;53.016;-2.260;2022-11-15T03:36:32;11.50;;;0.98;;
59306;SDS011;47983;53.016;-2.260;2022-11-15T03:39:19;8.18;;;1.20;;
59306;SDS011;47983;53.016;-2.260;2022-11-15T03:42:27;9.45;;;1.30;;
59306;SDS011;47983;53.016;-2.260;2022-11-15T03:48:27;6.50;;;0.82;;
59306;SDS011;47983;53.016;-2.260;2022-11-15T03:51:19;7.85;;;1.25;;
59306;SDS011;47983;53.016;-2.260;2022-11-15T03:54:06;5.22;;;0.70;;
59306;SDS011;47983;53.016;-2.260;2022-11-15T03:56:52;15.27;;;0.85;;
59306;SDS011;47983;53.016;-2.260;2022-11-15T03:59:38;7.15;;;1.33;;
59306;SDS011;47983;53.016;-2.260;2022-11-15T04:02:24;5.85;;;1.00;;
59306;SDS011;47983;53.016;-2.260;2022-11-15T04:05:11;7.30;;;0.65;;
59306;SDS011;47983;53.016;-2.260;2022-11-15T04:07:57;10.02;;;1.17;;
59306;SDS011;47983;53.016;-2.260;2022-11-15T04:10:44;8.07;;;1.95;;
59306;SDS011;47983;53.016;-2.260;2022-11-15T04:13:30;4.25;;;0.65;;
59306;SDS011;47983;53.016;-2.260;2022-11-15T04:16:17;15.23;;;1.20;;
59306;SDS011;47983;53.016;-2.260;2022-11-15T04:19:03;6.13;;;0.65;;
59306;SDS011;47983;53.016;-2.260;2022-11-15T04:22:08;5.20;;;1.73;;
59306;SDS011;47983;53.016;-2.260;2022-11-15T04:25:13;6.68;;;0.77;;
59306;SDS011;47983;53.016;-2.260;2022-11-15T04:28:02;13.98;;;1.35;;
59306;SDS011;47983;53.016;-2.260;2022-11-15T04:30:48;9.40;;;1.05;;
59306;SDS011;47983;53.016;-2.260;2022-11-15T04:33:34;9.07;;;1.00;;
59306;SDS011;47983;53.016;-2.260;2022-11-15T04:36:20;7.28;;;1.17;;
59306;SDS011;47983;53.016;-2.260;2022-11-15T04:39:25;12.13;;;1.30;;
59306;SDS011;47983;53.016;-2.260;2022-11-15T04:42:11;6.30;;;1.10;;
59306;SDS011;47983;53.016;-2.260;2022-11-15T04:44:57;8.85;;;1.00;;
59306;SDS011;47983;53.016;-2.260;2022-11-15T04:47:44;8.48;;;1.20;;
59306;SDS011;47983;53.016;-2.260;2022-11-15T04:50:30;6.13;;;1.10;;
59306;SDS011;47983;53.016;-2.260;2022-11-15T04:53:16;7.88;;;2.00;;
59306;SDS011;47983;53.016;-2.260;2022-11-15T04:56:02;8.50;;;1.55;;
59306;SDS011;47983;53.016;-2.260;2022-11-15T04:58:49;11.52;;;1.65;;
59306;SDS011;47983;53.016;-2.260;2022-11-15T05:01:35;7.53;;;1.63;;
59306;SDS011;47983;53.016;-2.260;2022-11-15T05:04:29;12.00;;;1.67;;
59306;SDS011;47983;53.016;-2.260;2022-11-15T05:07:15;7.15;;;2.20;;
59306;SDS011;47983;53.016;-2.260;2022-11-15T05:10:01;7.32;;;2.28;;
59306;SDS011;47983;53.016;-2.260;2022-11-15T05:12:48;8.27;;;1.85;;
59306;SDS011;47983;53.016;-2.260;2022-11-15T05:15:34;3.67;;;1.33;;
59306;SDS011;47983;53.016;-2.260;2022-11-15T05:18:19;6.70;;;2.38;;
59306;SDS011;47983;53.016;-2.260;2022-11-15T05:21:12;9.57;;;2.00;;
59306;SDS011;47983;53.016;-2.260;2022-11-15T05:24:00;5.97;;;1.80;;
59306;SDS011;47983;53.016;-2.260;2022-11-15T05:26:46;6.45;;;2.13;;
59306;SDS011;47983;53.016;-2.260;2022-11-15T05:29:32;12.68;;;2.17;;
59306;SDS011;47983;53.016;-2.260;2022-11-15T05:32:18;8.13;;;1.73;;
59306;SDS011;47983;53.016;-2.260;2022-11-15T05:35:04;8.18;;;2.42;;
59306;SDS011;47983;53.016;-2.260;2022-11-15T05:37:53;9.05;;;2.22;;
59306;SDS011;47983;53.016;-2.260;2022-11-15T05:40:39;7.97;;;2.67;;
59306;SDS011;47983;53.016;-2.260;2022-11-15T05:43:25;6.60;;;1.73;;
59306;SDS011;47983;53.016;-2.260;2022-11-15T05:46:12;5.53;;;1.98;;
59306;SDS011;47983;53.016;-2.260;2022-11-15T05:48:59;3.60;;;2.25;;
59306;SDS011;47983;53.016;-2.260;2022-11-15T05:51:46;9.43;;;2.40;;
59306;SDS011;47983;53.016;-2.260;2022-11-15T05:54:33;7.20;;;1.92;;
59306;SDS011;47983;53.016;-2.260;2022-11-15T05:57:22;7.47;;;2.33;;
59306;SDS011;47983;53.016;-2.260;2022-11-15T06:00:09;2.90;;;1.85;;
59306;SDS011;47983;53.016;-2.260;2022-11-15T06:02:55;10.55;;;3.13;;
59306;SDS011;47983;53.016;-2.260;2022-11-15T06:05:41;9.40;;;2.10;;
59306;SDS011;47983;53.016;-2.260;2022-11-15T06:08:27;5.82;;;2.00;;
59306;SDS011;47983;53.016;-2.260;2022-11-15T06:11:13;6.47;;;1.88;;
59306;SDS011;47983;53.016;-2.260;2022-11-15T06:14:00;9.20;;;2.45;;
59306;SDS011;47983;53.016;-2.260;2022-11-15T06:16:46;7.72;;;2.80;;
59306;SDS011;47983;53.016;-2.260;2022-11-15T06:19:32;7.97;;;2.35;;
59306;SDS011;47983;53.016;-2.260;2022-11-15T06:22:18;11.65;;;2.85;;
59306;SDS011;47983;53.016;-2.260;2022-11-15T06:25:05;5.55;;;2.45;;
59306;SDS011;47983;53.016;-2.260;2022-11-15T06:27:54;10.02;;;3.55;;
59306;SDS011;47983;53.016;-2.260;2022-11-15T06:30:40;6.30;;;2.78;;
59306;SDS011;47983;53.016;-2.260;2022-11-15T06:33:26;6.38;;;2.60;;
59306;SDS011;47983;53.016;-2.260;2022-11-15T06:36:13;5.43;;;2.40;;
59306;SDS011;47983;53.016;-2.260;2022-11-15T06:39:03;9.52;;;2.63;;
59306;SDS011;47983;53.016;-2.260;2022-11-15T06:41:50;7.75;;;2.20;;
59306;SDS011;47983;53.016;-2.260;2022-11-15T06:44:36;8.57;;;2.53;;
59306;SDS011;47983;53.016;-2.260;2022-11-15T06:47:22;8.98;;;2.17;;
59306;SDS011;47983;53.016;-2.260;2022-11-15T06:50:08;6.13;;;2.30;;
59306;SDS011;47983;53.016;-2.260;2022-11-15T06:52:55;3.58;;;1.80;;
59306;SDS011;47983;53.016;-2.260;2022-11-15T06:55:45;7.70;;;2.00;;
59306;SDS011;47983;53.016;-2.260;2022-11-15T06:58:37;5.57;;;2.22;;
59306;SDS011;47983;53.016;-2.260;2022-11-15T07:01:24;8.82;;;2.00;;
59306;SDS011;47983;53.016;-2.260;2022-11-15T07:04:10;10.30;;;2.10;;
59306;SDS011;47983;53.016;-2.260;2022-11-15T07:06:56;9.38;;;2.58;;
59306;SDS011;47983;53.016;-2.260;2022-11-15T07:09:42;8.15;;;2.13;;
59306;SDS011;47983;53.016;-2.260;2022-11-15T07:12:29;2.85;;;2.10;;
59306;SDS011;47983;53.016;-2.260;2022-11-15T07:15:16;4.78;;;1.90;;
59306;SDS011;47983;53.016;-2.260;2022-11-15T07:18:03;11.35;;;2.17;;
59306;SDS011;47983;53.016;-2.260;2022-11-15T07:20:50;6.68;;;2.25;;
59306;SDS011;47983;53.016;-2.260;2022-11-15T07:23:37;4.30;;;1.90;;
59306;SDS011;47983;53.016;-2.260;2022-11-15T07:26:24;4.13;;;1.63;;
59306;SDS011;47983;53.016;-2.260;2022-11-15T07:29:10;9.95;;;2.33;;
59306;SDS011;47983;53.016;-2.260;2022-11-15T07:31:57;7.97;;;1.98;;
59306;SDS011;47983;53.016;-2.260;2022-11-15T07:34:43;5.18;;;1.88;;
59306;SDS011;47983;53.016;-2.260;2022-11-15T07:37:31;6.78;;;2.05;;
59306;SDS011;47983;53.016;-2.260;2022-11-15T07:40:17;3.92;;;2.00;;
59306;SDS011;47983;53.016;-2.260;2022-11-15T07:43:04;4.97;;;2.70;;
59306;SDS011;47983;53.016;-2.260;2022-11-15T07:45:52;19.23;;;2.25;;
59306;SDS011;47983;53.016;-2.260;2022-11-15T07:48:44;6.70;;;2.10;;
59306;SDS011;47983;53.016;-2.260;2022-11-15T07:51:30;3.42;;;1.67;;
59306;SDS011;47983;53.016;-2.260;2022-11-15T07:54:16;5.15;;;2.50;;
59306;SDS011;47983;53.016;-2.260;2022-11-15T07:57:02;5.53;;;1.70;;
59306;SDS011;47983;53.016;-2.260;2022-11-15T07:59:52;4.70;;;1.90;;
59306;SDS011;47983;53.016;-2.260;2022-11-15T08:02:39;3.35;;;1.40;;
59306;SDS011;47983;53.016;-2.260;2022-11-15T08:05:25;1.83;;;1.40;;
59306;SDS011;47983;53.016;-2.260;2022-11-15T08:08:12;4.20;;;1.55;;
59306;SDS011;47983;53.016;-2.260;2022-11-15T08:10:58;1.55;;;1.33;;
59306;SDS011;47983;53.016;-2.260;2022-11-15T08:13:45;2.90;;;1.40;;
59306;SDS011;47983;53.016;-2.260;2022-11-15T08:16:31;4.82;;;2.60;;
59306;SDS011;47983;53.016;-2.260;2022-11-15T08:19:17;3.22;;;1.35;;
59306;SDS011;47983;53.016;-2.260;2022-11-15T08:22:04;3.28;;;1.23;;
59306;SDS011;47983;53.016;-2.260;2022-11-15T08:24:49;2.15;;;1.48;;
59306;SDS011;47983;53.016;-2.260;2022-11-15T08:27:35;2.83;;;1.60;;
59306;SDS011;47983;53.016;-2.260;2022-11-15T08:30:22;1.77;;;1.17;;
59306;SDS011;47983;53.016;-2.260;2022-11-15T08:33:10;1.98;;;1.30;;
59306;SDS011;47983;53.016;-2.260;2022-11-15T08:36:01;1.42;;;1.15;;
59306;SDS011;47983;53.016;-2.260;2022-11-15T08:38:47;2.08;;;1.20;;
59306;SDS011;47983;53.016;-2.260;2022-11-15T08:41:34;3.22;;;1.35;;
59306;SDS011;47983;53.016;-2.260;2022-11-15T08:44:22;1.87;;;1.07;;
59306;SDS011;47983;53.016;-2.260;2022-11-15T08:47:12;1.27;;;1.00;;
59306;SDS011;47983;53.016;-2.260;2022-11-15T08:49:59;2.22;;;0.95;;
59306;SDS011;47983;53.016;-2.260;2022-11-15T08:52:46;1.80;;;1.20;;
59306;SDS011;47983;53.016;-2.260;2022-11-15T08:55:35;2.22;;;0.90;;
59306;SDS011;47983;53.016;-2.260;2022-11-15T08:58:23;0.40;;;0.40;;
59306;SDS011;47983;53.016;-2.260;2022-11-15T09:01:17;1.50;;;0.60;;
59306;SDS011;47983;53.016;-2.260;2022-11-15T09:04:05;0.98;;;0.85;;
59306;SDS011;47983;53.016;-2.260;2022-11-15T09:06:52;1.25;;;0.80;;
59306;SDS011;47983;53.016;-2.260;2022-11-15T09:09:38;2.35;;;0.85;;
59306;SDS011;47983;53.016;-2.260;2022-11-15T09:12:25;2.05;;;0.77;;
59306;SDS011;47983;53.016;-2.260;2022-11-15T09:15:11;1.00;;;0.60;;
59306;SDS011;47983;53.016;-2.260;2022-11-15T09:17:58;0.88;;;0.60;;
59306;SDS011;47983;53.016;-2.260;2022-11-15T09:20:44;0.90;;;0.90;;
59306;SDS011;47983;53.016;-2.260;2022-11-15T09:23:30;0.93;;;0.80;;
59306;SDS011;47983;53.016;-2.260;2022-11-15T09:26:16;1.98;;;0.70;;
59306;SDS011;47983;53.016;-2.260;2022-11-15T09:29:02;3.42;;;0.88;;
59306;SDS011;47983;53.016;-2.260;2022-11-15T09:31:51;1.17;;;0.60;;
59306;SDS011;47983;53.016;-2.260;2022-11-15T09:34:38;4.20;;;0.80;;
59306;SDS011;47983;53.016;-2.260;2022-11-15T09:37:25;1.58;;;0.88;;
59306;SDS011;47983;53.016;-2.260;2022-11-15T09:40:11;0.95;;;0.70;;
59306;SDS011;47983;53.016;-2.260;2022-11-15T09:43:07;1.40;;;0.63;;
59306;SDS011;47983;53.016;-2.260;2022-11-15T09:49:23;2.28;;;0.68;;
59306;SDS011;47983;53.016;-2.260;2022-11-15T09:52:04;1.85;;;0.50;;
59306;SDS011;47983;53.016;-2.260;2022-11-15T09:54:35;1.00;;;0.70;;
59306;SDS011;47983;53.016;-2.260;2022-11-15T10:00:25;0.60;;;0.52;;
59306;SDS011;47983;53.016;-2.260;2022-11-15T10:03:18;1.02;;;0.43;;
59306;SDS011;47983;53.016;-2.260;2022-11-15T10:05:55;2.97;;;0.73;;
59306;SDS011;47983;53.016;-2.260;2022-11-15T10:10:59;2.47;;;0.60;;
59306;SDS011;47983;53.016;-2.260;2022-11-15T10:13:50;1.65;;;1.08;;
59306;SDS011;47983;53.016;-2.260;2022-11-15T10:22:11;1.42;;;0.60;;
59306;SDS011;47983;53.016;-2.260;2022-11-15T10:25:00;1.08;;;0.85;;
59306;SDS011;47983;53.016;-2.260;2022-11-15T10:27:42;2.03;;;0.70;;
59306;SDS011;47983;53.016;-2.260;2022-11-15T10:30:15;1.73;;;0.93;;
59306;SDS011;47983;53.016;-2.260;2022-11-15T10:32:45;1.27;;;0.63;;
59306;SDS011;47983;53.016;-2.260;2022-11-15T10:35:18;0.80;;;0.40;;
59306;SDS011;47983;53.016;-2.260;2022-11-15T10:37:51;2.13;;;0.60;;
59306;SDS011;47983;53.016;-2.260;2022-11-15T10:40:20;1.70;;;0.47;;
59306;SDS011;47983;53.016;-2.260;2022-11-15T10:43:03;1.67;;;0.55;;
59306;SDS011;47983;53.016;-2.260;2022-11-15T10:45:35;0.40;;;0.40;;
59306;SDS011;47983;53.016;-2.260;2022-11-15T10:50:41;0.90;;;0.70;;
59306;SDS011;47983;53.016;-2.260;2022-11-15T10:53:21;2.72;;;0.70;;
59306;SDS011;47983;53.016;-2.260;2022-11-15T10:55:53;1.38;;;0.80;;
59306;SDS011;47983;53.016;-2.260;2022-11-15T11:04:08;1.17;;;0.55;;
59306;SDS011;47983;53.016;-2.260;2022-11-15T11:06:57;1.73;;;0.52;;
59306;SDS011;47983;53.016;-2.260;2022-11-15T11:09:41;1.08;;;0.60;;
59306;SDS011;47983;53.016;-2.260;2022-11-15T11:12:10;1.40;;;0.70;;
59306;SDS011;47983;53.016;-2.260;2022-11-15T11:14:39;0.98;;;0.68;;
59306;SDS011;47983;53.016;-2.260;2022-11-15T11:17:18;1.38;;;1.27;;
59306;SDS011;47983;53.016;-2.260;2022-11-15T11:20:00;2.22;;;1.10;;
59306;SDS011;47983;53.016;-2.260;2022-11-15T11:25:34;0.68;;;0.68;;
59306;SDS011;47983;53.016;-2.260;2022-11-15T11:33:58;1.73;;;0.73;;
59306;SDS011;47983;53.016;-2.260;2022-11-15T11:42:56;0.20;;;0.20;;
59306;SDS011;47983;53.016;-2.260;2022-11-15T11:50:46;0.40;;;0.20;;
59306;SDS011;47983;53.016;-2.260;2022-11-15T11:53:25;0.22;;;0.10;;
59306;SDS011;47983;53.016;-2.260;2022-11-15T11:56:17;0.38;;;0.28;;
59306;SDS011;47983;53.016;-2.260;2022-11-15T11:58:54;0.93;;;0.20;;
59306;SDS011;47983;53.016;-2.260;2022-11-15T12:01:32;1.65;;;0.20;;
59306;SDS011;47983;53.016;-2.260;2022-11-15T12:07:01;0.70;;;0.30;;
59306;SDS011;47983;53.016;-2.260;2022-11-15T12:12:32;1.00;;;0.30;;
59306;SDS011;47983;53.016;-2.260;2022-11-15T12:17:37;0.88;;;0.52;;
59306;SDS011;47983;53.016;-2.260;2022-11-15T12:26:14;2.85;;;0.50;;
59306;SDS011;47983;53.016;-2.260;2022-11-15T12:28:59;2.08;;;0.60;;
59306;SDS011;47983;53.016;-2.260;2022-11-15T12:36:47;1.02;;;0.60;;
59306;SDS011;47983;53.016;-2.260;2022-11-15T12:39:16;1.27;;;0.80;;
59306;SDS011;47983;53.016;-2.260;2022-11-15T12:42:34;1.30;;;0.70;;
59306;SDS011;47983;53.016;-2.260;2022-11-15T12:47:04;1.48;;;0.70;;
59306;SDS011;47983;53.016;-2.260;2022-11-15T12:52:04;0.73;;;0.50;;
59306;SDS011;47983;53.016;-2.260;2022-11-15T13:17:49;4.35;;;1.10;;
59306;SDS011;47983;53.016;-2.260;2022-11-15T13:28:47;5.50;;;2.05;;
59306;SDS011;47983;53.016;-2.260;2022-11-15T13:33:51;1.85;;;1.05;;
59306;SDS011;47983;53.016;-2.260;2022-11-15T13:36:22;4.85;;;1.60;;
59306;SDS011;47983;53.016;-2.260;2022-11-15T13:38:55;2.75;;;1.40;;
59306;SDS011;47983;53.016;-2.260;2022-11-15T13:41:36;2.90;;;0.85;;
59306;SDS011;47983;53.016;-2.260;2022-11-15T13:44:21;2.63;;;1.40;;
59306;SDS011;47983;53.016;-2.260;2022-11-15T13:47:00;6.47;;;1.65;;
59306;SDS011;47983;53.016;-2.260;2022-11-15T13:49:33;3.53;;;1.25;;
59306;SDS011;47983;53.016;-2.260;2022-11-15T13:52:02;11.18;;;1.73;;
59306;SDS011;47983;53.016;-2.260;2022-11-15T13:54:34;5.15;;;1.17;;
59306;SDS011;47983;53.016;-2.260;2022-11-15T13:59:59;9.48;;;1.23;;
59306;SDS011;47983;53.016;-2.260;2022-11-15T14:02:37;8.10;;;1.00;;
59306;SDS011;47983;53.016;-2.260;2022-11-15T14:05:14;8.35;;;1.48;;
59306;SDS011;47983;53.016;-2.260;2022-11-15T14:08:01;5.30;;;1.45;;
59306;SDS011;47983;53.016;-2.260;2022-11-15T14:10:36;10.93;;;2.58;;
59306;SDS011;47983;53.016;-2.260;2022-11-15T14:13:09;9.55;;;2.33;;
59306;SDS011;47983;53.016;-2.260;2022-11-15T14:15:53;8.25;;;2.90;;
59306;SDS011;47983;53.016;-2.260;2022-11-15T14:18:40;11.02;;;3.30;;
59306;SDS011;47983;53.016;-2.260;2022-11-15T14:21:10;9.52;;;3.10;;
59306;SDS011;47983;53.016;-2.260;2022-11-15T14:23:39;11.10;;;2.63;;
59306;SDS011;47983;53.016;-2.260;2022-11-15T14:26:10;10.75;;;3.38;;
59306;SDS011;47983;53.016;-2.260;2022-11-15T14:28:55;10.85;;;2.40;;
59306;SDS011;47983;53.016;-2.260;2022-11-15T14:31:23;10.27;;;2.65;;
59306;SDS011;47983;53.016;-2.260;2022-11-15T14:33:51;13.38;;;3.05;;
59306;SDS011;47983;53.016;-2.260;2022-11-15T14:36:21;12.43;;;2.83;;
59306;SDS011;47983;53.016;-2.260;2022-11-15T14:38:50;13.57;;;3.50;;
59306;SDS011;47983;53.016;-2.260;2022-11-15T14:41:19;16.75;;;3.47;;
59306;SDS011;47983;53.016;-2.260;2022-11-15T14:43:49;7.10;;;2.28;;
59306;SDS011;47983;53.016;-2.260;2022-11-15T14:46:18;10.88;;;1.65;;
59306;SDS011;47983;53.016;-2.260;2022-11-15T14:48:49;11.48;;;2.45;;
59306;SDS011;47983;53.016;-2.260;2022-11-15T14:51:17;18.50;;;2.00;;
59306;SDS011;47983;53.016;-2.260;2022-11-15T14:53:45;10.57;;;1.77;;
59306;SDS011;47983;53.016;-2.260;2022-11-15T14:56:14;19.90;;;2.05;;
59306;SDS011;47983;53.016;-2.260;2022-11-15T14:58:43;10.07;;;2.88;;
59306;SDS011;47983;53.016;-2.260;2022-11-15T15:01:12;18.88;;;3.15;;
59306;SDS011;47983;53.016;-2.260;2022-11-15T15:03:47;13.77;;;2.47;;
59306;SDS011;47983;53.016;-2.260;2022-11-15T15:06:15;21.58;;;4.38;;
59306;SDS011;47983;53.016;-2.260;2022-11-15T15:08:44;39.47;;;9.23;;
59306;SDS011;47983;53.016;-2.260;2022-11-15T15:11:14;46.58;;;10.50;;
59306;SDS011;47983;53.016;-2.260;2022-11-15T15:13:45;58.95;;;14.02;;
59306;SDS011;47983;53.016;-2.260;2022-11-15T15:16:13;18.52;;;3.58;;
59306;SDS011;47983;53.016;-2.260;2022-11-15T15:18:40;24.50;;;2.53;;
59306;SDS011;47983;53.016;-2.260;2022-11-15T15:21:17;11.02;;;1.65;;
59306;SDS011;47983;53.016;-2.260;2022-11-15T15:23:55;23.15;;;2.58;;
59306;SDS011;47983;53.016;-2.260;2022-11-15T15:26:23;12.98;;;2.25;;
59306;SDS011;47983;53.016;-2.260;2022-11-15T15:28:51;13.73;;;2.20;;
59306;SDS011;47983;53.016;-2.260;2022-11-15T15:31:19;12.00;;;2.30;;
59306;SDS011;47983;53.016;-2.260;2022-11-15T15:33:46;12.20;;;2.53;;
59306;SDS011;47983;53.016;-2.260;2022-11-15T15:36:16;18.75;;;2.78;;
59306;SDS011;47983;53.016;-2.260;2022-11-15T15:38:45;17.45;;;3.45;;
59306;SDS011;47983;53.016;-2.260;2022-11-15T15:41:14;26.63;;;2.80;;
59306;SDS011;47983;53.016;-2.260;2022-11-15T15:43:42;21.52;;;2.25;;
59306;SDS011;47983;53.016;-2.260;2022-11-15T15:46:11;25.13;;;3.03;;
59306;SDS011;47983;53.016;-2.260;2022-11-15T15:48:43;30.10;;;3.35;;
59306;SDS011;47983;53.016;-2.260;2022-11-15T15:51:11;19.92;;;2.92;;
59306;SDS011;47983;53.016;-2.260;2022-11-15T15:53:46;30.42;;;3.90;;
59306;SDS011;47983;53.016;-2.260;2022-11-15T15:56:14;21.58;;;2.90;;
59306;SDS011;47983;53.016;-2.260;2022-11-15T15:58:42;15.63;;;2.72;;
59306;SDS011;47983;53.016;-2.260;2022-11-15T16:01:10;14.32;;;3.42;;
59306;SDS011;47983;53.016;-2.260;2022-11-15T16:03:37;20.92;;;4.25;;
59306;SDS011;47983;53.016;-2.260;2022-11-15T16:06:23;15.13;;;3.67;;
59306;SDS011;47983;53.016;-2.260;2022-11-15T16:08:59;15.98;;;4.63;;
59306;SDS011;47983;53.016;-2.260;2022-11-15T16:11:43;24.88;;;4.75;;
59306;SDS011;47983;53.016;-2.260;2022-11-15T16:14:11;17.25;;;5.00;;
59306;SDS011;47983;53.016;-2.260;2022-11-15T16:16:39;18.67;;;3.45;;
59306;SDS011;47983;53.016;-2.260;2022-11-15T16:19:07;12.25;;;3.45;;
59306;SDS011;47983;53.016;-2.260;2022-11-15T16:21:37;23.50;;;4.20;;
59306;SDS011;47983;53.016;-2.260;2022-11-15T16:24:05;22.83;;;4.22;;
59306;SDS011;47983;53.016;-2.260;2022-11-15T16:26:32;21.52;;;3.67;;
59306;SDS011;47983;53.016;-2.260;2022-11-15T16:31:30;12.75;;;4.45;;
59306;SDS011;47983;53.016;-2.260;2022-11-15T16:33:57;17.83;;;4.28;;
59306;SDS011;47983;53.016;-2.260;2022-11-15T16:36:25;13.30;;;4.95;;
59306;SDS011;47983;53.016;-2.260;2022-11-15T16:38:57;26.50;;;6.30;;
59306;SDS011;47983;53.016;-2.260;2022-11-15T16:41:25;19.38;;;7.47;;
59306;SDS011;47983;53.016;-2.260;2022-11-15T16:43:53;16.63;;;5.15;;
59306;SDS011;47983;53.016;-2.260;2022-11-15T16:46:25;32.58;;;11.43;;
59306;SDS011;47983;53.016;-2.260;2022-11-15T16:48:53;23.55;;;7.07;;
59306;SDS011;47983;53.016;-2.260;2022-11-15T16:51:21;24.35;;;7.70;;
59306;SDS011;47983;53.016;-2.260;2022-11-15T16:53:50;20.33;;;6.50;;
59306;SDS011;47983;53.016;-2.260;2022-11-15T16:58:48;28.42;;;5.68;;
59306;SDS011;47983;53.016;-2.260;2022-11-15T17:01:18;19.88;;;6.20;;
59306;SDS011;47983;53.016;-2.260;2022-11-15T17:03:50;17.73;;;4.78;;
59306;SDS011;47983;53.016;-2.260;2022-11-15T17:06:20;22.75;;;5.90;;
59306;SDS011;47983;53.016;-2.260;2022-11-15T17:08:48;30.63;;;4.65;;
59306;SDS011;47983;53.016;-2.260;2022-11-15T17:11:20;21.77;;;5.82;;
59306;SDS011;47983;53.016;-2.260;2022-11-15T17:13:48;20.98;;;4.50;;
59306;SDS011;47983;53.016;-2.260;2022-11-15T17:16:16;16.35;;;5.75;;
59306;SDS011;47983;53.016;-2.260;2022-11-15T17:18:49;16.58;;;5.05;;
59306;SDS011;47983;53.016;-2.260;2022-11-15T17:21:18;20.00;;;5.57;;
59306;SDS011;47983;53.016;-2.260;2022-11-15T17:23:47;22.15;;;6.38;;
59306;SDS011;47983;53.016;-2.260;2022-11-15T17:26:15;17.48;;;4.80;;
59306;SDS011;47983;53.016;-2.260;2022-11-15T17:28:57;26.73;;;6.03;;
59306;SDS011;47983;53.016;-2.260;2022-11-15T17:31:26;19.10;;;5.30;;
59306;SDS011;47983;53.016;-2.260;2022-11-15T17:33:56;21.40;;;6.70;;
59306;SDS011;47983;53.016;-2.260;2022-11-15T17:36:24;27.17;;;9.32;;
59306;SDS011;47983;53.016;-2.260;2022-11-15T17:38:52;23.83;;;10.23;;
59306;SDS011;47983;53.016;-2.260;2022-11-15T17:41:26;31.35;;;10.23;;
59306;SDS011;47983;53.016;-2.260;2022-11-15T17:43:55;29.50;;;9.77;;
59306;SDS011;47983;53.016;-2.260;2022-11-15T17:46:28;21.85;;;9.00;;
59306;SDS011;47983;53.016;-2.260;2022-11-15T17:48:56;24.00;;;8.63;;
59306;SDS011;47983;53.016;-2.260;2022-11-15T17:51:24;28.25;;;8.45;;
59306;SDS011;47983;53.016;-2.260;2022-11-15T17:53:54;24.88;;;8.77;;
59306;SDS011;47983;53.016;-2.260;2022-11-15T17:56:22;24.73;;;8.02;;
59306;SDS011;47983;53.016;-2.260;2022-11-15T17:58:52;21.23;;;9.50;;
59306;SDS011;47983;53.016;-2.260;2022-11-15T18:01:22;29.02;;;10.40;;
59306;SDS011;47983;53.016;-2.260;2022-11-15T18:03:58;29.40;;;11.23;;
59306;SDS011;47983;53.016;-2.260;2022-11-15T18:08:56;30.38;;;11.00;;
59306;SDS011;47983;53.016;-2.260;2022-11-15T18:11:28;39.63;;;11.15;;
59306;SDS011;47983;53.016;-2.260;2022-11-15T18:13:59;28.27;;;10.52;;
59306;SDS011;47983;53.016;-2.260;2022-11-15T18:16:29;34.08;;;13.77;;
59306;SDS011;47983;53.016;-2.260;2022-11-15T18:18:59;33.83;;;13.27;;